Three Bridges, Louisiana
Current Conditions -  °F | °C
As of 7:15 AM on Thursday 18 Dec 2014 (Local Time) from KIER Reporting Station
Light Rain Light Rain  
Wind Chill: 44°   Ceiling: 2200
Heat Index: 47°   Visibility: 10mi
Dew Point: 45°   Wind: 7mph
Humidity: 91%   Direction: 40°NE
Pressure: 30.15"   Gusts: NA
Location:  31.6668°N, 92.8023°W
Report Text: KIER 181315Z AUTO 04006KT 10SM -RA OVC022 09/07 A3015 RMK AO2 T00850071
Loading
Personal Weather Stations






























Interactive Weather Map New forecast layout! Learn more

10-Day Weather Forecast

Advertisements
Track Severe Weather on mobile